sensor_id;sensor_type;location;lat;lon;timestamp;temperature;humidity
8939;DHT22;4504;48.810;9.172;2023-01-19T00:01:37;0.30;99.90
8939;DHT22;4504;48.810;9.172;2023-01-19T00:04:04;0.30;99.90
8939;DHT22;4504;48.810;9.172;2023-01-19T00:06:31;0.30;99.90
8939;DHT22;4504;48.810;9.172;2023-01-19T00:08:58;0.30;99.90
8939;DHT22;4504;48.810;9.172;2023-01-19T00:11:25;0.30;99.90
8939;DHT22;4504;48.810;9.172;2023-01-19T00:13:53;0.30;99.90
8939;DHT22;4504;48.810;9.172;2023-01-19T00:16:21;0.30;99.90
8939;DHT22;4504;48.810;9.172;2023-01-19T00:18:49;0.30;99.90
8939;DHT22;4504;48.810;9.172;2023-01-19T00:21:17;0.30;99.90
8939;DHT22;4504;48.810;9.172;2023-01-19T00:23:46;0.30;99.90
8939;DHT22;4504;48.810;9.172;2023-01-19T00:26:14;0.30;99.90
8939;DHT22;4504;48.810;9.172;2023-01-19T00:28:42;0.20;99.90
8939;DHT22;4504;48.810;9.172;2023-01-19T00:31:11;0.20;99.90
8939;DHT22;4504;48.810;9.172;2023-01-19T00:33:38;0.20;99.90
8939;DHT22;4504;48.810;9.172;2023-01-19T00:36:06;0.20;99.90
8939;DHT22;4504;48.810;9.172;2023-01-19T00:38:33;0.20;99.90
8939;DHT22;4504;48.810;9.172;2023-01-19T00:41:00;0.20;99.90
8939;DHT22;4504;48.810;9.172;2023-01-19T00:43:27;0.10;99.90
8939;DHT22;4504;48.810;9.172;2023-01-19T00:45:53;0.20;99.90
8939;DHT22;4504;48.810;9.172;2023-01-19T00:48:21;0.20;99.90
8939;DHT22;4504;48.810;9.172;2023-01-19T00:50:48;0.20;99.90
8939;DHT22;4504;48.810;9.172;2023-01-19T00:53:15;0.20;99.90
8939;DHT22;4504;48.810;9.172;2023-01-19T00:55:42;0.20;99.90
8939;DHT22;4504;48.810;9.172;2023-01-19T00:58:09;0.10;99.90
8939;DHT22;4504;48.810;9.172;2023-01-19T01:00:36;0.10;99.90
8939;DHT22;4504;48.810;9.172;2023-01-19T01:03:03;0.00;99.90
8939;DHT22;4504;48.810;9.172;2023-01-19T01:05:31;0.00;99.90
8939;DHT22;4504;48.810;9.172;2023-01-19T01:07:58;0.00;99.90
8939;DHT22;4504;48.810;9.172;2023-01-19T01:10:27;0.00;99.90
8939;DHT22;4504;48.810;9.172;2023-01-19T01:12:55;0.00;99.90
8939;DHT22;4504;48.810;9.172;2023-01-19T01:15:22;0.00;99.90
8939;DHT22;4504;48.810;9.172;2023-01-19T01:17:51;0.10;99.90
8939;DHT22;4504;48.810;9.172;2023-01-19T01:20:19;0.10;99.90
8939;DHT22;4504;48.810;9.172;2023-01-19T01:22:50;0.00;99.90
8939;DHT22;4504;48.810;9.172;2023-01-19T01:25:19;0.00;99.90
8939;DHT22;4504;48.810;9.172;2023-01-19T01:27:47;0.00;99.90
8939;DHT22;4504;48.810;9.172;2023-01-19T01:30:15;0.00;99.90
8939;DHT22;4504;48.810;9.172;2023-01-19T01:32:42;0.00;99.90
8939;DHT22;4504;48.810;9.172;2023-01-19T01:35:10;0.00;99.90
8939;DHT22;4504;48.810;9.172;2023-01-19T01:37:37;0.00;99.90
8939;DHT22;4504;48.810;9.172;2023-01-19T01:40:07;0.00;99.90
8939;DHT22;4504;48.810;9.172;2023-01-19T01:42:34;0.00;99.90
8939;DHT22;4504;48.810;9.172;2023-01-19T01:45:03;0.00;99.90
8939;DHT22;4504;48.810;9.172;2023-01-19T01:47:36;0.00;99.90
8939;DHT22;4504;48.810;9.172;2023-01-19T01:50:09;0.00;99.90
8939;DHT22;4504;48.810;9.172;2023-01-19T01:52:44;0.10;99.90
8939;DHT22;4504;48.810;9.172;2023-01-19T01:55:13;0.00;99.90
8939;DHT22;4504;48.810;9.172;2023-01-19T01:57:44;0.00;99.90
8939;DHT22;4504;48.810;9.172;2023-01-19T02:00:13;0.00;99.90
8939;DHT22;4504;48.810;9.172;2023-01-19T02:02:40;0.00;99.90
8939;DHT22;4504;48.810;9.172;2023-01-19T02:05:23;-0.10;99.90
8939;DHT22;4504;48.810;9.172;2023-01-19T02:07:56;-0.10;99.90
8939;DHT22;4504;48.810;9.172;2023-01-19T02:10:43;-0.10;99.90
8939;DHT22;4504;48.810;9.172;2023-01-19T02:13:29;-0.10;99.90
8939;DHT22;4504;48.810;9.172;2023-01-19T02:15:58;-0.10;99.90
8939;DHT22;4504;48.810;9.172;2023-01-19T02:18:29;-0.10;99.90
8939;DHT22;4504;48.810;9.172;2023-01-19T02:21:11;-0.10;99.90
8939;DHT22;4504;48.810;9.172;2023-01-19T02:23:43;-0.10;99.90
8939;DHT22;4504;48.810;9.172;2023-01-19T02:26:13;-0.10;99.90
8939;DHT22;4504;48.810;9.172;2023-01-19T02:28:43;-0.10;99.90
8939;DHT22;4504;48.810;9.172;2023-01-19T02:31:11;-0.10;99.90
8939;DHT22;4504;48.810;9.172;2023-01-19T02:33:40;-0.20;99.90
8939;DHT22;4504;48.810;9.172;2023-01-19T02:36:09;-0.10;99.90
8939;DHT22;4504;48.810;9.172;2023-01-19T02:38:37;-0.10;99.90
8939;DHT22;4504;48.810;9.172;2023-01-19T02:41:11;-0.10;99.90
8939;DHT22;4504;48.810;9.172;2023-01-19T02:43:39;-0.20;99.90
8939;DHT22;4504;48.810;9.172;2023-01-19T02:46:07;-0.20;99.90
8939;DHT22;4504;48.810;9.172;2023-01-19T02:48:34;-0.20;99.90
8939;DHT22;4504;48.810;9.172;2023-01-19T02:51:02;-0.30;99.90
8939;DHT22;4504;48.810;9.172;2023-01-19T02:53:52;-0.20;99.90
8939;DHT22;4504;48.810;9.172;2023-01-19T02:56:54;-0.20;99.90
8939;DHT22;4504;48.810;9.172;2023-01-19T02:59:38;-0.20;99.90
8939;DHT22;4504;48.810;9.172;2023-01-19T03:02:19;-0.10;99.90
8939;DHT22;4504;48.810;9.172;2023-01-19T03:07:52;-0.20;99.90
8939;DHT22;4504;48.810;9.172;2023-01-19T03:10:27;-0.20;99.90
8939;DHT22;4504;48.810;9.172;2023-01-19T03:13:00;-0.20;99.90
8939;DHT22;4504;48.810;9.172;2023-01-19T03:15:33;-0.20;99.90
8939;DHT22;4504;48.810;9.172;2023-01-19T03:18:05;-0.20;99.90
8939;DHT22;4504;48.810;9.172;2023-01-19T03:20:34;-0.20;99.90
8939;DHT22;4504;48.810;9.172;2023-01-19T03:23:05;-0.20;99.90
8939;DHT22;4504;48.810;9.172;2023-01-19T03:25:36;-0.20;99.90
8939;DHT22;4504;48.810;9.172;2023-01-19T03:28:06;-0.20;99.90
8939;DHT22;4504;48.810;9.172;2023-01-19T03:30:37;-0.20;99.90
8939;DHT22;4504;48.810;9.172;2023-01-19T03:33:08;-0.20;99.90
8939;DHT22;4504;48.810;9.172;2023-01-19T03:35:38;-0.20;99.90
8939;DHT22;4504;48.810;9.172;2023-01-19T03:38:12;-0.20;99.90
8939;DHT22;4504;48.810;9.172;2023-01-19T03:40:40;-0.20;99.90
8939;DHT22;4504;48.810;9.172;2023-01-19T03:43:09;-0.20;99.90
8939;DHT22;4504;48.810;9.172;2023-01-19T03:45:38;-0.20;99.90
8939;DHT22;4504;48.810;9.172;2023-01-19T03:48:06;-0.20;99.90
8939;DHT22;4504;48.810;9.172;2023-01-19T03:50:33;-0.20;99.90
8939;DHT22;4504;48.810;9.172;2023-01-19T03:53:04;-0.20;99.90
8939;DHT22;4504;48.810;9.172;2023-01-19T03:55:31;-0.20;99.90
8939;DHT22;4504;48.810;9.172;2023-01-19T03:57:59;-0.20;99.90
8939;DHT22;4504;48.810;9.172;2023-01-19T04:00:27;-0.20;99.90
8939;DHT22;4504;48.810;9.172;2023-01-19T04:02:54;-0.20;99.90
8939;DHT22;4504;48.810;9.172;2023-01-19T04:05:21;-0.30;99.90
8939;DHT22;4504;48.810;9.172;2023-01-19T04:07:48;-0.30;99.90
8939;DHT22;4504;48.810;9.172;2023-01-19T04:10:16;-0.30;99.90
8939;DHT22;4504;48.810;9.172;2023-01-19T04:12:43;-0.30;99.90
8939;DHT22;4504;48.810;9.172;2023-01-19T04:15:11;-0.40;99.90
8939;DHT22;4504;48.810;9.172;2023-01-19T04:17:39;-0.40;99.90
8939;DHT22;4504;48.810;9.172;2023-01-19T04:20:08;-0.40;99.90
8939;DHT22;4504;48.810;9.172;2023-01-19T04:22:35;-0.40;99.90
8939;DHT22;4504;48.810;9.172;2023-01-19T04:25:04;-0.50;99.90
8939;DHT22;4504;48.810;9.172;2023-01-19T04:27:32;-0.50;99.90
8939;DHT22;4504;48.810;9.172;2023-01-19T04:29:59;-0.40;99.90
8939;DHT22;4504;48.810;9.172;2023-01-19T04:32:26;-0.40;99.90
8939;DHT22;4504;48.810;9.172;2023-01-19T04:34:54;-0.50;99.90
8939;DHT22;4504;48.810;9.172;2023-01-19T04:37:21;-0.50;99.90
8939;DHT22;4504;48.810;9.172;2023-01-19T04:39:48;-0.40;99.90
8939;DHT22;4504;48.810;9.172;2023-01-19T04:42:15;-0.50;99.90
8939;DHT22;4504;48.810;9.172;2023-01-19T04:44:42;-0.50;99.90
8939;DHT22;4504;48.810;9.172;2023-01-19T04:47:09;-0.50;99.90
8939;DHT22;4504;48.810;9.172;2023-01-19T04:49:36;-0.50;99.90
8939;DHT22;4504;48.810;9.172;2023-01-19T04:52:05;-0.40;99.90
8939;DHT22;4504;48.810;9.172;2023-01-19T04:54:32;-0.50;99.90
8939;DHT22;4504;48.810;9.172;2023-01-19T04:56:59;-0.50;99.90
8939;DHT22;4504;48.810;9.172;2023-01-19T04:59:26;-0.50;99.90
8939;DHT22;4504;48.810;9.172;2023-01-19T05:01:53;-0.40;99.90
8939;DHT22;4504;48.810;9.172;2023-01-19T05:04:20;-0.50;99.90
8939;DHT22;4504;48.810;9.172;2023-01-19T05:06:48;-0.50;99.90
8939;DHT22;4504;48.810;9.172;2023-01-19T05:09:16;-0.50;99.90
8939;DHT22;4504;48.810;9.172;2023-01-19T05:11:43;-0.50;99.90
8939;DHT22;4504;48.810;9.172;2023-01-19T05:14:10;-0.50;99.90
8939;DHT22;4504;48.810;9.172;2023-01-19T05:16:37;-0.50;99.90
8939;DHT22;4504;48.810;9.172;2023-01-19T05:19:04;-0.50;99.90
8939;DHT22;4504;48.810;9.172;2023-01-19T05:21:31;-0.50;99.90
8939;DHT22;4504;48.810;9.172;2023-01-19T05:23:58;-0.40;99.90
8939;DHT22;4504;48.810;9.172;2023-01-19T05:26:26;-0.40;99.90
8939;DHT22;4504;48.810;9.172;2023-01-19T05:28:53;-0.40;99.90
8939;DHT22;4504;48.810;9.172;2023-01-19T05:31:21;-0.40;99.90
8939;DHT22;4504;48.810;9.172;2023-01-19T05:33:48;-0.40;99.90
8939;DHT22;4504;48.810;9.172;2023-01-19T05:36:15;-0.40;99.90
8939;DHT22;4504;48.810;9.172;2023-01-19T05:38:41;-0.40;99.90
8939;DHT22;4504;48.810;9.172;2023-01-19T05:41:08;-0.40;99.90
8939;DHT22;4504;48.810;9.172;2023-01-19T05:43:37;-0.40;99.90
8939;DHT22;4504;48.810;9.172;2023-01-19T05:46:04;-0.40;99.90
8939;DHT22;4504;48.810;9.172;2023-01-19T05:48:31;-0.40;99.90
8939;DHT22;4504;48.810;9.172;2023-01-19T05:50:59;-0.40;99.90
8939;DHT22;4504;48.810;9.172;2023-01-19T05:53:26;-0.40;99.90
8939;DHT22;4504;48.810;9.172;2023-01-19T05:55:58;-0.40;99.90
8939;DHT22;4504;48.810;9.172;2023-01-19T05:58:25;-0.40;99.90
8939;DHT22;4504;48.810;9.172;2023-01-19T06:00:54;-0.40;99.90
8939;DHT22;4504;48.810;9.172;2023-01-19T06:03:21;-0.40;99.90
8939;DHT22;4504;48.810;9.172;2023-01-19T06:05:48;-0.40;99.90
8939;DHT22;4504;48.810;9.172;2023-01-19T06:08:15;-0.40;99.90
8939;DHT22;4504;48.810;9.172;2023-01-19T06:10:43;-0.30;99.90
8939;DHT22;4504;48.810;9.172;2023-01-19T06:13:10;-0.30;99.90
8939;DHT22;4504;48.810;9.172;2023-01-19T06:15:37;-0.30;99.90
8939;DHT22;4504;48.810;9.172;2023-01-19T06:18:05;-0.30;99.90
8939;DHT22;4504;48.810;9.172;2023-01-19T06:20:32;-0.30;99.90
8939;DHT22;4504;48.810;9.172;2023-01-19T06:22:59;-0.40;99.90
8939;DHT22;4504;48.810;9.172;2023-01-19T06:25:26;-0.40;99.90
8939;DHT22;4504;48.810;9.172;2023-01-19T06:27:53;-0.40;99.90
8939;DHT22;4504;48.810;9.172;2023-01-19T06:30:20;-0.40;99.90
8939;DHT22;4504;48.810;9.172;2023-01-19T06:32:47;-0.40;99.90
8939;DHT22;4504;48.810;9.172;2023-01-19T06:35:16;-0.40;99.90
8939;DHT22;4504;48.810;9.172;2023-01-19T06:37:43;-0.40;99.90
8939;DHT22;4504;48.810;9.172;2023-01-19T06:40:10;-0.40;99.90
8939;DHT22;4504;48.810;9.172;2023-01-19T06:42:38;-0.40;99.90
8939;DHT22;4504;48.810;9.172;2023-01-19T06:45:06;-0.40;99.90
8939;DHT22;4504;48.810;9.172;2023-01-19T06:47:33;-0.40;99.90
8939;DHT22;4504;48.810;9.172;2023-01-19T06:50:01;-0.40;99.90
8939;DHT22;4504;48.810;9.172;2023-01-19T06:52:29;-0.40;99.90
8939;DHT22;4504;48.810;9.172;2023-01-19T06:54:56;-0.40;99.90
8939;DHT22;4504;48.810;9.172;2023-01-19T06:57:23;-0.50;99.90
8939;DHT22;4504;48.810;9.172;2023-01-19T06:59:50;-0.50;99.90
8939;DHT22;4504;48.810;9.172;2023-01-19T07:02:17;-0.50;99.90
8939;DHT22;4504;48.810;9.172;2023-01-19T07:04:47;-0.50;99.90
8939;DHT22;4504;48.810;9.172;2023-01-19T07:07:15;-0.50;99.90
8939;DHT22;4504;48.810;9.172;2023-01-19T07:09:43;-0.50;99.90
8939;DHT22;4504;48.810;9.172;2023-01-19T07:12:10;-0.50;99.90
8939;DHT22;4504;48.810;9.172;2023-01-19T07:14:37;-0.50;99.90
8939;DHT22;4504;48.810;9.172;2023-01-19T07:17:04;-0.50;99.90
8939;DHT22;4504;48.810;9.172;2023-01-19T07:19:32;-0.60;99.90
8939;DHT22;4504;48.810;9.172;2023-01-19T07:21:59;-0.60;99.90
8939;DHT22;4504;48.810;9.172;2023-01-19T07:24:26;-0.60;99.90
8939;DHT22;4504;48.810;9.172;2023-01-19T07:26:56;-0.50;99.90
8939;DHT22;4504;48.810;9.172;2023-01-19T07:29:24;-0.60;99.90
8939;DHT22;4504;48.810;9.172;2023-01-19T07:31:51;-0.60;99.90
8939;DHT22;4504;48.810;9.172;2023-01-19T07:34:19;-0.50;99.90
8939;DHT22;4504;48.810;9.172;2023-01-19T07:36:46;-0.60;99.90
8939;DHT22;4504;48.810;9.172;2023-01-19T07:39:14;-0.50;99.90
8939;DHT22;4504;48.810;9.172;2023-01-19T07:41:41;-0.50;99.90
8939;DHT22;4504;48.810;9.172;2023-01-19T07:44:09;-0.50;99.90
8939;DHT22;4504;48.810;9.172;2023-01-19T07:46:36;-0.50;99.90
8939;DHT22;4504;48.810;9.172;2023-01-19T07:49:03;-0.50;99.90
8939;DHT22;4504;48.810;9.172;2023-01-19T07:51:30;-0.50;99.90
8939;DHT22;4504;48.810;9.172;2023-01-19T07:53:57;-0.50;99.90
8939;DHT22;4504;48.810;9.172;2023-01-19T07:56:24;-0.50;99.90
8939;DHT22;4504;48.810;9.172;2023-01-19T07:58:52;-0.40;99.90
8939;DHT22;4504;48.810;9.172;2023-01-19T08:01:20;-0.40;99.90
8939;DHT22;4504;48.810;9.172;2023-01-19T08:03:48;-0.30;99.90
8939;DHT22;4504;48.810;9.172;2023-01-19T08:06:19;-0.30;99.90
8939;DHT22;4504;48.810;9.172;2023-01-19T08:08:47;-0.30;99.90
8939;DHT22;4504;48.810;9.172;2023-01-19T08:11:14;-0.30;99.90
8939;DHT22;4504;48.810;9.172;2023-01-19T08:13:41;-0.30;99.90
8939;DHT22;4504;48.810;9.172;2023-01-19T08:16:08;-0.30;99.90
8939;DHT22;4504;48.810;9.172;2023-01-19T08:18:36;-0.20;99.90
8939;DHT22;4504;48.810;9.172;2023-01-19T08:21:04;-0.20;99.90
8939;DHT22;4504;48.810;9.172;2023-01-19T08:23:31;-0.20;99.90
8939;DHT22;4504;48.810;9.172;2023-01-19T08:25:58;-0.20;99.90
8939;DHT22;4504;48.810;9.172;2023-01-19T08:28:25;-0.10;99.90
8939;DHT22;4504;48.810;9.172;2023-01-19T08:30:52;-0.10;99.90
8939;DHT22;4504;48.810;9.172;2023-01-19T08:33:21;0.00;99.90
8939;DHT22;4504;48.810;9.172;2023-01-19T08:35:51;0.00;99.90
8939;DHT22;4504;48.810;9.172;2023-01-19T08:38:19;0.00;99.90
8939;DHT22;4504;48.810;9.172;2023-01-19T08:40:46;0.00;99.90
8939;DHT22;4504;48.810;9.172;2023-01-19T08:43:16;0.00;99.90
8939;DHT22;4504;48.810;9.172;2023-01-19T08:45:45;0.10;99.90
8939;DHT22;4504;48.810;9.172;2023-01-19T08:48:17;0.00;99.90
8939;DHT22;4504;48.810;9.172;2023-01-19T08:50:45;0.10;99.90
8939;DHT22;4504;48.810;9.172;2023-01-19T08:53:14;0.00;99.90
8939;DHT22;4504;48.810;9.172;2023-01-19T08:55:42;0.10;99.90
8939;DHT22;4504;48.810;9.172;2023-01-19T08:58:09;0.10;99.90
8939;DHT22;4504;48.810;9.172;2023-01-19T09:00:37;0.20;99.90
8939;DHT22;4504;48.810;9.172;2023-01-19T09:03:06;0.20;99.90
8939;DHT22;4504;48.810;9.172;2023-01-19T09:05:34;0.30;99.90
8939;DHT22;4504;48.810;9.172;2023-01-19T09:08:05;0.30;99.90
8939;DHT22;4504;48.810;9.172;2023-01-19T09:10:34;0.40;99.90
8939;DHT22;4504;48.810;9.172;2023-01-19T09:13:02;0.50;99.90
8939;DHT22;4504;48.810;9.172;2023-01-19T09:15:30;0.50;99.90
8939;DHT22;4504;48.810;9.172;2023-01-19T09:17:58;0.50;99.90
8939;DHT22;4504;48.810;9.172;2023-01-19T09:20:26;0.60;99.90
8939;DHT22;4504;48.810;9.172;2023-01-19T09:22:55;0.70;99.90
8939;DHT22;4504;48.810;9.172;2023-01-19T09:25:23;0.70;99.90
8939;DHT22;4504;48.810;9.172;2023-01-19T09:27:51;0.80;99.90
8939;DHT22;4504;48.810;9.172;2023-01-19T09:30:19;0.80;99.90
8939;DHT22;4504;48.810;9.172;2023-01-19T09:32:46;0.80;99.90
8939;DHT22;4504;48.810;9.172;2023-01-19T09:35:13;0.80;99.90
8939;DHT22;4504;48.810;9.172;2023-01-19T09:37:45;0.90;99.90
8939;DHT22;4504;48.810;9.172;2023-01-19T09:40:13;0.90;99.90
8939;DHT22;4504;48.810;9.172;2023-01-19T09:42:42;1.00;99.90
8939;DHT22;4504;48.810;9.172;2023-01-19T09:45:15;1.00;99.90
8939;DHT22;4504;48.810;9.172;2023-01-19T09:47:45;1.00;99.90
8939;DHT22;4504;48.810;9.172;2023-01-19T09:50:18;1.00;99.90
8939;DHT22;4504;48.810;9.172;2023-01-19T09:52:54;1.20;99.90
8939;DHT22;4504;48.810;9.172;2023-01-19T09:55:25;1.10;99.90
8939;DHT22;4504;48.810;9.172;2023-01-19T09:57:52;1.20;99.90
8939;DHT22;4504;48.810;9.172;2023-01-19T10:00:21;1.20;99.90
8939;DHT22;4504;48.810;9.172;2023-01-19T10:02:54;1.20;99.90
8939;DHT22;4504;48.810;9.172;2023-01-19T10:05:28;1.20;99.90
8939;DHT22;4504;48.810;9.172;2023-01-19T10:08:17;1.20;99.90
8939;DHT22;4504;48.810;9.172;2023-01-19T10:10:48;1.30;99.90
8939;DHT22;4504;48.810;9.172;2023-01-19T10:13:28;1.30;99.90
8939;DHT22;4504;48.810;9.172;2023-01-19T10:16:12;1.30;99.90
8939;DHT22;4504;48.810;9.172;2023-01-19T10:18:44;1.30;99.90
8939;DHT22;4504;48.810;9.172;2023-01-19T10:21:16;1.40;99.90
8939;DHT22;4504;48.810;9.172;2023-01-19T10:23:46;1.50;99.90
8939;DHT22;4504;48.810;9.172;2023-01-19T10:26:16;1.50;99.90
8939;DHT22;4504;48.810;9.172;2023-01-19T10:28:46;1.60;99.90
8939;DHT22;4504;48.810;9.172;2023-01-19T10:31:19;1.60;99.90
8939;DHT22;4504;48.810;9.172;2023-01-19T10:33:48;1.60;99.90
8939;DHT22;4504;48.810;9.172;2023-01-19T10:36:17;1.70;99.90
8939;DHT22;4504;48.810;9.172;2023-01-19T10:38:44;1.70;99.90
8939;DHT22;4504;48.810;9.172;2023-01-19T10:41:17;1.70;99.90
8939;DHT22;4504;48.810;9.172;2023-01-19T10:43:45;1.80;99.90
8939;DHT22;4504;48.810;9.172;2023-01-19T10:46:21;1.90;99.90
8939;DHT22;4504;48.810;9.172;2023-01-19T10:48:50;1.90;99.90
8939;DHT22;4504;48.810;9.172;2023-01-19T10:51:17;1.90;99.90
8939;DHT22;4504;48.810;9.172;2023-01-19T10:53:57;1.90;99.90
8939;DHT22;4504;48.810;9.172;2023-01-19T10:56:28;1.90;99.90
8939;DHT22;4504;48.810;9.172;2023-01-19T10:58:59;1.90;99.90
8939;DHT22;4504;48.810;9.172;2023-01-19T11:01:28;1.90;99.90
8939;DHT22;4504;48.810;9.172;2023-01-19T11:03:56;1.90;99.90
8939;DHT22;4504;48.810;9.172;2023-01-19T11:06:31;1.90;99.90
8939;DHT22;4504;48.810;9.172;2023-01-19T11:09:15;2.00;99.90
8939;DHT22;4504;48.810;9.172;2023-01-19T11:11:45;2.00;99.90
8939;DHT22;4504;48.810;9.172;2023-01-19T11:14:16;2.00;99.90
8939;DHT22;4504;48.810;9.172;2023-01-19T11:16:47;2.00;99.90
8939;DHT22;4504;48.810;9.172;2023-01-19T11:19:23;2.10;99.90
8939;DHT22;4504;48.810;9.172;2023-01-19T11:21:51;2.10;99.90
8939;DHT22;4504;48.810;9.172;2023-01-19T11:24:19;2.10;99.90
8939;DHT22;4504;48.810;9.172;2023-01-19T11:26:47;2.20;99.90
8939;DHT22;4504;48.810;9.172;2023-01-19T11:29:18;2.30;99.90
8939;DHT22;4504;48.810;9.172;2023-01-19T11:31:48;2.20;99.90
8939;DHT22;4504;48.810;9.172;2023-01-19T11:34:25;2.20;99.90
8939;DHT22;4504;48.810;9.172;2023-01-19T11:36:58;2.20;99.90
8939;DHT22;4504;48.810;9.172;2023-01-19T11:39:26;2.20;99.90
8939;DHT22;4504;48.810;9.172;2023-01-19T11:41:55;2.20;99.90
8939;DHT22;4504;48.810;9.172;2023-01-19T11:44:26;2.20;99.90
8939;DHT22;4504;48.810;9.172;2023-01-19T11:46:58;2.30;99.90
8939;DHT22;4504;48.810;9.172;2023-01-19T11:49:31;2.40;99.90
8939;DHT22;4504;48.810;9.172;2023-01-19T11:52:05;2.50;99.90
8939;DHT22;4504;48.810;9.172;2023-01-19T11:54:35;2.50;99.90
8939;DHT22;4504;48.810;9.172;2023-01-19T11:57:12;2.60;99.90
8939;DHT22;4504;48.810;9.172;2023-01-19T11:59:40;2.60;99.90
8939;DHT22;4504;48.810;9.172;2023-01-19T12:02:19;2.60;99.90
8939;DHT22;4504;48.810;9.172;2023-01-19T12:04:48;2.60;99.90
8939;DHT22;4504;48.810;9.172;2023-01-19T12:07:21;2.70;99.90
8939;DHT22;4504;48.810;9.172;2023-01-19T12:09:54;2.60;99.90
8939;DHT22;4504;48.810;9.172;2023-01-19T12:12:27;2.50;99.90
8939;DHT22;4504;48.810;9.172;2023-01-19T12:14:59;2.50;99.90
8939;DHT22;4504;48.810;9.172;2023-01-19T12:17:32;2.50;99.90
8939;DHT22;4504;48.810;9.172;2023-01-19T12:20:04;2.50;99.90
8939;DHT22;4504;48.810;9.172;2023-01-19T12:22:39;2.40;99.90
8939;DHT22;4504;48.810;9.172;2023-01-19T12:25:14;2.40;99.90
8939;DHT22;4504;48.810;9.172;2023-01-19T12:27:47;2.40;99.90
8939;DHT22;4504;48.810;9.172;2023-01-19T12:30:17;2.40;99.90
8939;DHT22;4504;48.810;9.172;2023-01-19T12:32:46;2.40;99.90
8939;DHT22;4504;48.810;9.172;2023-01-19T12:35:52;2.40;99.90
8939;DHT22;4504;48.810;9.172;2023-01-19T12:38:34;2.40;99.90
8939;DHT22;4504;48.810;9.172;2023-01-19T12:41:20;2.40;99.90
8939;DHT22;4504;48.810;9.172;2023-01-19T12:44:21;2.40;99.90
8939;DHT22;4504;48.810;9.172;2023-01-19T12:46:51;2.40;99.90
8939;DHT22;4504;48.810;9.172;2023-01-19T12:49:30;2.40;99.90
8939;DHT22;4504;48.810;9.172;2023-01-19T12:55:18;2.40;99.90
8939;DHT22;4504;48.810;9.172;2023-01-19T12:57:49;2.40;99.90
8939;DHT22;4504;48.810;9.172;2023-01-19T13:00:43;2.40;99.90
8939;DHT22;4504;48.810;9.172;2023-01-19T13:03:43;2.40;99.90
8939;DHT22;4504;48.810;9.172;2023-01-19T13:06:12;2.40;99.90
8939;DHT22;4504;48.810;9.172;2023-01-19T13:08:58;2.40;99.90
8939;DHT22;4504;48.810;9.172;2023-01-19T13:11:26;2.40;99.90
8939;DHT22;4504;48.810;9.172;2023-01-19T13:14:33;2.40;99.90
8939;DHT22;4504;48.810;9.172;2023-01-19T13:20:17;2.30;99.90
8939;DHT22;4504;48.810;9.172;2023-01-19T13:23:14;2.30;99.90
8939;DHT22;4504;48.810;9.172;2023-01-19T13:25:46;2.20;99.90
8939;DHT22;4504;48.810;9.172;2023-01-19T13:28:16;2.30;99.90
8939;DHT22;4504;48.810;9.172;2023-01-19T13:30:52;2.20;99.90
8939;DHT22;4504;48.810;9.172;2023-01-19T13:33:21;2.20;99.90
8939;DHT22;4504;48.810;9.172;2023-01-19T13:35:54;2.20;99.90
8939;DHT22;4504;48.810;9.172;2023-01-19T13:38:26;2.20;99.90
8939;DHT22;4504;48.810;9.172;2023-01-19T13:40:54;2.10;99.90
8939;DHT22;4504;48.810;9.172;2023-01-19T13:43:27;2.10;99.90
8939;DHT22;4504;48.810;9.172;2023-01-19T13:45:54;2.20;99.90
8939;DHT22;4504;48.810;9.172;2023-01-19T13:48:25;2.10;99.90
8939;DHT22;4504;48.810;9.172;2023-01-19T13:51:01;2.20;99.90
8939;DHT22;4504;48.810;9.172;2023-01-19T13:53:30;2.20;99.90
8939;DHT22;4504;48.810;9.172;2023-01-19T13:56:17;2.20;99.90
8939;DHT22;4504;48.810;9.172;2023-01-19T13:59:02;2.20;99.90
8939;DHT22;4504;48.810;9.172;2023-01-19T14:01:35;2.20;99.90
8939;DHT22;4504;48.810;9.172;2023-01-19T14:04:03;2.20;99.90
8939;DHT22;4504;48.810;9.172;2023-01-19T14:06:33;2.20;99.90
8939;DHT22;4504;48.810;9.172;2023-01-19T14:09:16;2.20;99.90
8939;DHT22;4504;48.810;9.172;2023-01-19T14:11:44;2.20;99.90
8939;DHT22;4504;48.810;9.172;2023-01-19T14:14:23;2.20;99.90
8939;DHT22;4504;48.810;9.172;2023-01-19T14:16:50;2.20;99.90
8939;DHT22;4504;48.810;9.172;2023-01-19T14:19:17;2.20;99.90
8939;DHT22;4504;48.810;9.172;2023-01-19T14:21:44;2.10;99.90
8939;DHT22;4504;48.810;9.172;2023-01-19T14:24:18;2.10;99.90
8939;DHT22;4504;48.810;9.172;2023-01-19T14:26:47;2.20;99.90
8939;DHT22;4504;48.810;9.172;2023-01-19T14:29:22;2.20;99.90
8939;DHT22;4504;48.810;9.172;2023-01-19T14:31:51;2.10;99.90
8939;DHT22;4504;48.810;9.172;2023-01-19T14:34:31;2.20;99.90
8939;DHT22;4504;48.810;9.172;2023-01-19T14:36:59;2.20;99.90
8939;DHT22;4504;48.810;9.172;2023-01-19T14:39:30;2.20;99.90
8939;DHT22;4504;48.810;9.172;2023-01-19T14:42:00;2.20;99.90
8939;DHT22;4504;48.810;9.172;2023-01-19T14:44:30;2.20;99.90
8939;DHT22;4504;48.810;9.172;2023-01-19T14:46:58;2.20;99.90
8939;DHT22;4504;48.810;9.172;2023-01-19T14:49:31;2.20;99.90
8939;DHT22;4504;48.810;9.172;2023-01-19T14:51:59;2.20;99.90
8939;DHT22;4504;48.810;9.172;2023-01-19T14:54:33;2.20;99.90
8939;DHT22;4504;48.810;9.172;2023-01-19T14:57:01;2.20;99.90
8939;DHT22;4504;48.810;9.172;2023-01-19T14:59:31;2.20;99.90
8939;DHT22;4504;48.810;9.172;2023-01-19T15:01:58;2.20;99.90
8939;DHT22;4504;48.810;9.172;2023-01-19T15:04:25;2.10;99.90
8939;DHT22;4504;48.810;9.172;2023-01-19T15:06:54;2.10;99.90
8939;DHT22;4504;48.810;9.172;2023-01-19T15:09:21;2.10;99.90
8939;DHT22;4504;48.810;9.172;2023-01-19T15:11:50;2.10;99.90
8939;DHT22;4504;48.810;9.172;2023-01-19T15:14:19;2.10;99.90
8939;DHT22;4504;48.810;9.172;2023-01-19T15:16:47;2.10;99.90
8939;DHT22;4504;48.810;9.172;2023-01-19T15:19:15;2.10;99.90
8939;DHT22;4504;48.810;9.172;2023-01-19T15:21:43;2.10;99.90
8939;DHT22;4504;48.810;9.172;2023-01-19T15:24:12;2.10;99.90
8939;DHT22;4504;48.810;9.172;2023-01-19T15:26:40;2.10;99.90
8939;DHT22;4504;48.810;9.172;2023-01-19T15:29:27;2.20;99.90
8939;DHT22;4504;48.810;9.172;2023-01-19T15:31:54;2.10;99.90
8939;DHT22;4504;48.810;9.172;2023-01-19T15:34:21;2.10;99.90
8939;DHT22;4504;48.810;9.172;2023-01-19T15:36:48;2.10;99.90
8939;DHT22;4504;48.810;9.172;2023-01-19T15:39:15;2.10;99.90
8939;DHT22;4504;48.810;9.172;2023-01-19T15:41:42;2.10;99.90
8939;DHT22;4504;48.810;9.172;2023-01-19T15:44:09;2.10;99.90
8939;DHT22;4504;48.810;9.172;2023-01-19T15:46:38;2.10;99.90
8939;DHT22;4504;48.810;9.172;2023-01-19T15:49:05;2.10;99.90
8939;DHT22;4504;48.810;9.172;2023-01-19T15:51:32;2.10;99.90
8939;DHT22;4504;48.810;9.172;2023-01-19T15:53:58;2.10;99.90
8939;DHT22;4504;48.810;9.172;2023-01-19T15:56:27;2.10;99.90
8939;DHT22;4504;48.810;9.172;2023-01-19T15:58:56;2.10;99.90
8939;DHT22;4504;48.810;9.172;2023-01-19T16:01:26;2.10;99.90
8939;DHT22;4504;48.810;9.172;2023-01-19T16:03:59;2.10;99.90
8939;DHT22;4504;48.810;9.172;2023-01-19T16:06:26;2.10;99.90
8939;DHT22;4504;48.810;9.172;2023-01-19T16:08:53;2.10;99.90
8939;DHT22;4504;48.810;9.172;2023-01-19T16:11:24;2.00;99.90
8939;DHT22;4504;48.810;9.172;2023-01-19T16:13:51;2.10;99.90
8939;DHT22;4504;48.810;9.172;2023-01-19T16:16:20;2.10;99.90
8939;DHT22;4504;48.810;9.172;2023-01-19T16:18:48;2.00;99.90
8939;DHT22;4504;48.810;9.172;2023-01-19T16:21:16;2.10;99.90
8939;DHT22;4504;48.810;9.172;2023-01-19T16:23:43;2.00;99.90
8939;DHT22;4504;48.810;9.172;2023-01-19T16:26:23;2.10;99.90
8939;DHT22;4504;48.810;9.172;2023-01-19T16:28:50;2.10;99.90
8939;DHT22;4504;48.810;9.172;2023-01-19T16:31:17;2.00;99.90
8939;DHT22;4504;48.810;9.172;2023-01-19T16:33:44;2.10;99.90
8939;DHT22;4504;48.810;9.172;2023-01-19T16:36:22;2.10;99.90
8939;DHT22;4504;48.810;9.172;2023-01-19T16:38:49;2.00;99.90
8939;DHT22;4504;48.810;9.172;2023-01-19T16:41:17;2.00;99.90